sensor_id;sensor_type;location;lat;lon;timestamp;temperature;humidity
16102;DHT22;56411;52.964;10.540;2023-03-01T00:01:16;-4.30;99.90
16102;DHT22;56411;52.964;10.540;2023-03-01T00:03:43;-4.40;99.90
16102;DHT22;56411;52.964;10.540;2023-03-01T00:06:11;-4.50;99.90
16102;DHT22;56411;52.964;10.540;2023-03-01T00:08:39;-4.50;99.90
16102;DHT22;56411;52.964;10.540;2023-03-01T00:11:07;-4.40;99.90
16102;DHT22;56411;52.964;10.540;2023-03-01T00:13:35;-4.40;99.90
16102;DHT22;56411;52.964;10.540;2023-03-01T00:16:03;-4.40;99.90
16102;DHT22;56411;52.964;10.540;2023-03-01T00:18:30;-4.40;99.90
16102;DHT22;56411;52.964;10.540;2023-03-01T00:20:58;-4.50;99.90
16102;DHT22;56411;52.964;10.540;2023-03-01T00:23:26;-4.40;99.90
16102;DHT22;56411;52.964;10.540;2023-03-01T00:25:55;-4.40;99.90
16102;DHT22;56411;52.964;10.540;2023-03-01T00:28:22;-4.40;99.90
16102;DHT22;56411;52.964;10.540;2023-03-01T00:30:49;-4.50;99.90
16102;DHT22;56411;52.964;10.540;2023-03-01T00:33:16;-4.50;99.90
16102;DHT22;56411;52.964;10.540;2023-03-01T00:35:43;-4.40;99.90
16102;DHT22;56411;52.964;10.540;2023-03-01T00:38:11;-4.30;99.90
16102;DHT22;56411;52.964;10.540;2023-03-01T00:40:38;-4.20;99.90
16102;DHT22;56411;52.964;10.540;2023-03-01T00:43:06;-4.20;99.90
16102;DHT22;56411;52.964;10.540;2023-03-01T00:45:33;-4.20;99.90
16102;DHT22;56411;52.964;10.540;2023-03-01T00:48:01;-4.20;99.90
16102;DHT22;56411;52.964;10.540;2023-03-01T00:50:28;-4.30;99.90
16102;DHT22;56411;52.964;10.540;2023-03-01T00:52:56;-4.40;99.90
16102;DHT22;56411;52.964;10.540;2023-03-01T00:55:23;-4.60;99.90
16102;DHT22;56411;52.964;10.540;2023-03-01T00:57:51;-4.70;99.90
16102;DHT22;56411;52.964;10.540;2023-03-01T01:00:21;-4.80;99.90
16102;DHT22;56411;52.964;10.540;2023-03-01T01:02:48;-4.90;99.90
16102;DHT22;56411;52.964;10.540;2023-03-01T01:05:16;-4.90;99.90
16102;DHT22;56411;52.964;10.540;2023-03-01T01:07:46;-5.00;99.90
16102;DHT22;56411;52.964;10.540;2023-03-01T01:10:13;-5.00;99.90
16102;DHT22;56411;52.964;10.540;2023-03-01T01:12:43;-5.00;99.90
16102;DHT22;56411;52.964;10.540;2023-03-01T01:15:10;-5.00;99.90
16102;DHT22;56411;52.964;10.540;2023-03-01T01:17:41;-4.80;99.90
16102;DHT22;56411;52.964;10.540;2023-03-01T01:20:09;-4.80;99.90
16102;DHT22;56411;52.964;10.540;2023-03-01T01:22:36;-4.80;99.90
16102;DHT22;56411;52.964;10.540;2023-03-01T01:25:04;-4.80;99.90
16102;DHT22;56411;52.964;10.540;2023-03-01T01:27:31;-4.90;99.90
16102;DHT22;56411;52.964;10.540;2023-03-01T01:29:59;-5.00;99.90
16102;DHT22;56411;52.964;10.540;2023-03-01T01:32:26;-5.20;99.90
16102;DHT22;56411;52.964;10.540;2023-03-01T01:34:55;-5.30;99.90
16102;DHT22;56411;52.964;10.540;2023-03-01T01:37:22;-5.20;99.90
16102;DHT22;56411;52.964;10.540;2023-03-01T01:39:56;-5.10;99.90
16102;DHT22;56411;52.964;10.540;2023-03-01T01:42:24;-5.20;99.90
16102;DHT22;56411;52.964;10.540;2023-03-01T01:47:51;-5.30;99.90
16102;DHT22;56411;52.964;10.540;2023-03-01T01:50:20;-5.40;99.90
16102;DHT22;56411;52.964;10.540;2023-03-01T01:52:48;-5.50;99.90
16102;DHT22;56411;52.964;10.540;2023-03-01T01:55:19;-5.60;99.90
16102;DHT22;56411;52.964;10.540;2023-03-01T01:57:49;-5.60;99.90
16102;DHT22;56411;52.964;10.540;2023-03-01T02:00:21;-5.60;99.90
16102;DHT22;56411;52.964;10.540;2023-03-01T02:02:51;-5.50;99.90
16102;DHT22;56411;52.964;10.540;2023-03-01T02:05:28;-5.50;99.90
16102;DHT22;56411;52.964;10.540;2023-03-01T02:07:59;-5.50;99.90
16102;DHT22;56411;52.964;10.540;2023-03-01T02:10:28;-5.40;99.90
16102;DHT22;56411;52.964;10.540;2023-03-01T02:12:56;-5.30;99.90
16102;DHT22;56411;52.964;10.540;2023-03-01T02:15:23;-5.20;99.90
16102;DHT22;56411;52.964;10.540;2023-03-01T02:17:52;-5.30;99.90
16102;DHT22;56411;52.964;10.540;2023-03-01T02:20:27;-5.30;99.90
16102;DHT22;56411;52.964;10.540;2023-03-01T02:22:58;-5.30;99.90
16102;DHT22;56411;52.964;10.540;2023-03-01T02:25:36;-5.10;99.90
16102;DHT22;56411;52.964;10.540;2023-03-01T02:28:10;-5.20;99.90
16102;DHT22;56411;52.964;10.540;2023-03-01T02:30:41;-5.20;99.90
16102;DHT22;56411;52.964;10.540;2023-03-01T02:33:30;-5.20;99.90
16102;DHT22;56411;52.964;10.540;2023-03-01T02:35:59;-5.20;99.90
16102;DHT22;56411;52.964;10.540;2023-03-01T02:38:27;-5.20;99.90
16102;DHT22;56411;52.964;10.540;2023-03-01T02:40:54;-5.20;99.90
16102;DHT22;56411;52.964;10.540;2023-03-01T02:43:25;-5.10;99.90
16102;DHT22;56411;52.964;10.540;2023-03-01T02:45:58;-5.20;99.90
16102;DHT22;56411;52.964;10.540;2023-03-01T02:48:26;-5.20;99.90
16102;DHT22;56411;52.964;10.540;2023-03-01T02:51:03;-5.10;99.90
16102;DHT22;56411;52.964;10.540;2023-03-01T02:53:38;-5.10;99.90
16102;DHT22;56411;52.964;10.540;2023-03-01T02:56:06;-5.10;99.90
16102;DHT22;56411;52.964;10.540;2023-03-01T02:58:38;-5.10;99.90
16102;DHT22;56411;52.964;10.540;2023-03-01T03:01:12;-5.20;99.90
16102;DHT22;56411;52.964;10.540;2023-03-01T03:03:41;-5.30;99.90
16102;DHT22;56411;52.964;10.540;2023-03-01T03:06:09;-5.30;99.90
16102;DHT22;56411;52.964;10.540;2023-03-01T03:08:36;-5.50;99.90
16102;DHT22;56411;52.964;10.540;2023-03-01T03:11:03;-5.60;99.90
16102;DHT22;56411;52.964;10.540;2023-03-01T03:13:31;-5.70;99.90
16102;DHT22;56411;52.964;10.540;2023-03-01T03:15:58;-5.80;99.90
16102;DHT22;56411;52.964;10.540;2023-03-01T03:18:27;-5.80;99.90
16102;DHT22;56411;52.964;10.540;2023-03-01T03:20:56;-5.80;99.90
16102;DHT22;56411;52.964;10.540;2023-03-01T03:23:25;-5.90;99.90
16102;DHT22;56411;52.964;10.540;2023-03-01T03:25:55;-6.00;99.90
16102;DHT22;56411;52.964;10.540;2023-03-01T03:28:22;-5.90;99.90
16102;DHT22;56411;52.964;10.540;2023-03-01T03:30:49;-5.90;99.90
16102;DHT22;56411;52.964;10.540;2023-03-01T03:33:16;-6.00;99.90
16102;DHT22;56411;52.964;10.540;2023-03-01T03:35:47;-5.90;99.90
16102;DHT22;56411;52.964;10.540;2023-03-01T03:38:18;-5.80;99.90
16102;DHT22;56411;52.964;10.540;2023-03-01T03:40:50;-5.70;99.90
16102;DHT22;56411;52.964;10.540;2023-03-01T03:43:19;-5.60;99.90
16102;DHT22;56411;52.964;10.540;2023-03-01T03:45:48;-5.40;99.90
16102;DHT22;56411;52.964;10.540;2023-03-01T03:48:16;-5.40;99.90
16102;DHT22;56411;52.964;10.540;2023-03-01T03:50:51;-5.40;99.90
16102;DHT22;56411;52.964;10.540;2023-03-01T03:53:20;-5.50;99.90
16102;DHT22;56411;52.964;10.540;2023-03-01T03:55:48;-5.60;99.90
16102;DHT22;56411;52.964;10.540;2023-03-01T03:58:25;-5.60;99.90
16102;DHT22;56411;52.964;10.540;2023-03-01T04:00:55;-5.60;99.90
16102;DHT22;56411;52.964;10.540;2023-03-01T04:03:25;-5.70;99.90
16102;DHT22;56411;52.964;10.540;2023-03-01T04:05:54;-5.70;99.90
16102;DHT22;56411;52.964;10.540;2023-03-01T04:08:22;-5.80;99.90
16102;DHT22;56411;52.964;10.540;2023-03-01T04:10:52;-5.90;99.90
16102;DHT22;56411;52.964;10.540;2023-03-01T04:13:22;-5.90;99.90
16102;DHT22;56411;52.964;10.540;2023-03-01T04:15:51;-5.90;99.90
16102;DHT22;56411;52.964;10.540;2023-03-01T04:18:21;-6.00;99.90
16102;DHT22;56411;52.964;10.540;2023-03-01T04:20:50;-6.00;99.90
16102;DHT22;56411;52.964;10.540;2023-03-01T04:23:22;-5.90;99.90
16102;DHT22;56411;52.964;10.540;2023-03-01T04:25:51;-5.90;99.90
16102;DHT22;56411;52.964;10.540;2023-03-01T04:28:21;-5.90;99.90
16102;DHT22;56411;52.964;10.540;2023-03-01T04:30:50;-5.90;99.90
16102;DHT22;56411;52.964;10.540;2023-03-01T04:33:18;-5.90;99.90
16102;DHT22;56411;52.964;10.540;2023-03-01T04:35:45;-5.90;99.90
16102;DHT22;56411;52.964;10.540;2023-03-01T04:38:15;-5.80;99.90
16102;DHT22;56411;52.964;10.540;2023-03-01T04:40:43;-5.80;99.90
16102;DHT22;56411;52.964;10.540;2023-03-01T04:43:12;-5.80;99.90
16102;DHT22;56411;52.964;10.540;2023-03-01T04:45:43;-5.80;99.90
16102;DHT22;56411;52.964;10.540;2023-03-01T04:48:10;-5.80;99.90
16102;DHT22;56411;52.964;10.540;2023-03-01T04:50:37;-6.00;99.90
16102;DHT22;56411;52.964;10.540;2023-03-01T04:53:04;-6.00;99.90
16102;DHT22;56411;52.964;10.540;2023-03-01T04:55:32;-6.10;99.90
16102;DHT22;56411;52.964;10.540;2023-03-01T04:58:01;-6.10;99.90
16102;DHT22;56411;52.964;10.540;2023-03-01T05:00:28;-6.00;99.90
16102;DHT22;56411;52.964;10.540;2023-03-01T05:02:57;-5.90;99.90
16102;DHT22;56411;52.964;10.540;2023-03-01T05:05:26;-6.00;99.90
16102;DHT22;56411;52.964;10.540;2023-03-01T05:07:56;-6.00;99.90
16102;DHT22;56411;52.964;10.540;2023-03-01T05:10:24;-6.00;99.90
16102;DHT22;56411;52.964;10.540;2023-03-01T05:12:52;-6.00;99.90
16102;DHT22;56411;52.964;10.540;2023-03-01T05:15:20;-6.10;99.90
16102;DHT22;56411;52.964;10.540;2023-03-01T05:17:51;-6.00;99.90
16102;DHT22;56411;52.964;10.540;2023-03-01T05:20:19;-6.00;99.90
16102;DHT22;56411;52.964;10.540;2023-03-01T05:22:49;-6.00;99.90
16102;DHT22;56411;52.964;10.540;2023-03-01T05:25:16;-5.90;99.90
16102;DHT22;56411;52.964;10.540;2023-03-01T05:27:43;-6.00;99.90
16102;DHT22;56411;52.964;10.540;2023-03-01T05:30:12;-6.00;99.90
16102;DHT22;56411;52.964;10.540;2023-03-01T05:32:46;-5.90;99.90
16102;DHT22;56411;52.964;10.540;2023-03-01T05:35:17;-5.80;99.90
16102;DHT22;56411;52.964;10.540;2023-03-01T05:37:46;-5.90;99.90
16102;DHT22;56411;52.964;10.540;2023-03-01T05:40:15;-5.80;99.90
16102;DHT22;56411;52.964;10.540;2023-03-01T05:42:44;-5.80;99.90
16102;DHT22;56411;52.964;10.540;2023-03-01T05:45:12;-5.90;99.90
16102;DHT22;56411;52.964;10.540;2023-03-01T05:47:39;-5.90;99.90
16102;DHT22;56411;52.964;10.540;2023-03-01T05:50:12;-5.80;99.90
16102;DHT22;56411;52.964;10.540;2023-03-01T05:52:40;-5.90;99.90
16102;DHT22;56411;52.964;10.540;2023-03-01T05:55:08;-5.80;99.90
16102;DHT22;56411;52.964;10.540;2023-03-01T05:57:35;-5.80;99.90
16102;DHT22;56411;52.964;10.540;2023-03-01T06:00:02;-5.80;99.90
16102;DHT22;56411;52.964;10.540;2023-03-01T06:02:29;-5.80;99.90
16102;DHT22;56411;52.964;10.540;2023-03-01T06:04:56;-5.90;99.90
16102;DHT22;56411;52.964;10.540;2023-03-01T06:07:25;-6.00;99.90
16102;DHT22;56411;52.964;10.540;2023-03-01T06:09:52;-6.00;99.90
16102;DHT22;56411;52.964;10.540;2023-03-01T06:12:19;-6.00;99.90
16102;DHT22;56411;52.964;10.540;2023-03-01T06:14:46;-6.00;99.90
16102;DHT22;56411;52.964;10.540;2023-03-01T06:17:14;-5.90;99.90
16102;DHT22;56411;52.964;10.540;2023-03-01T06:19:41;-5.90;99.90
16102;DHT22;56411;52.964;10.540;2023-03-01T06:22:08;-5.90;99.90
16102;DHT22;56411;52.964;10.540;2023-03-01T06:24:36;-5.90;99.90
16102;DHT22;56411;52.964;10.540;2023-03-01T06:27:03;-5.80;99.90
16102;DHT22;56411;52.964;10.540;2023-03-01T06:29:31;-5.80;99.90
16102;DHT22;56411;52.964;10.540;2023-03-01T06:31:58;-5.80;99.90
16102;DHT22;56411;52.964;10.540;2023-03-01T06:34:25;-5.80;99.90
16102;DHT22;56411;52.964;10.540;2023-03-01T06:36:52;-5.80;99.90
16102;DHT22;56411;52.964;10.540;2023-03-01T06:39:19;-5.80;99.90
16102;DHT22;56411;52.964;10.540;2023-03-01T06:41:47;-5.70;99.90
16102;DHT22;56411;52.964;10.540;2023-03-01T06:44:14;-5.70;99.90
16102;DHT22;56411;52.964;10.540;2023-03-01T06:46:41;-5.70;99.90
16102;DHT22;56411;52.964;10.540;2023-03-01T06:49:08;-5.60;99.90
16102;DHT22;56411;52.964;10.540;2023-03-01T06:51:36;-5.60;99.90
16102;DHT22;56411;52.964;10.540;2023-03-01T06:54:03;-5.50;99.90
16102;DHT22;56411;52.964;10.540;2023-03-01T06:56:31;-5.50;99.90
16102;DHT22;56411;52.964;10.540;2023-03-01T06:59:00;-5.40;99.90
16102;DHT22;56411;52.964;10.540;2023-03-01T07:01:28;-5.30;99.90
16102;DHT22;56411;52.964;10.540;2023-03-01T07:03:55;-5.30;99.90
16102;DHT22;56411;52.964;10.540;2023-03-01T07:06:22;-5.10;99.90
16102;DHT22;56411;52.964;10.540;2023-03-01T07:08:49;-5.10;99.90
16102;DHT22;56411;52.964;10.540;2023-03-01T07:11:16;-5.00;99.90
16102;DHT22;56411;52.964;10.540;2023-03-01T07:13:44;-5.00;99.90
16102;DHT22;56411;52.964;10.540;2023-03-01T07:16:12;-5.00;99.90
16102;DHT22;56411;52.964;10.540;2023-03-01T07:18:39;-4.90;99.90
16102;DHT22;56411;52.964;10.540;2023-03-01T07:21:08;-4.90;99.90
16102;DHT22;56411;52.964;10.540;2023-03-01T07:23:35;-4.80;99.90
16102;DHT22;56411;52.964;10.540;2023-03-01T07:26:02;-4.70;99.90
16102;DHT22;56411;52.964;10.540;2023-03-01T07:28:29;-4.60;99.90
16102;DHT22;56411;52.964;10.540;2023-03-01T07:31:01;-4.50;99.90
16102;DHT22;56411;52.964;10.540;2023-03-01T07:33:29;-4.40;99.90
16102;DHT22;56411;52.964;10.540;2023-03-01T07:35:57;-4.30;99.90
16102;DHT22;56411;52.964;10.540;2023-03-01T07:38:25;-4.20;99.90
16102;DHT22;56411;52.964;10.540;2023-03-01T07:40:52;-4.00;99.90
16102;DHT22;56411;52.964;10.540;2023-03-01T07:43:19;-3.90;99.90
16102;DHT22;56411;52.964;10.540;2023-03-01T07:45:47;-3.80;99.90
16102;DHT22;56411;52.964;10.540;2023-03-01T07:48:14;-3.70;99.90
16102;DHT22;56411;52.964;10.540;2023-03-01T07:50:43;-3.60;99.90
16102;DHT22;56411;52.964;10.540;2023-03-01T07:53:12;-3.50;99.90
16102;DHT22;56411;52.964;10.540;2023-03-01T07:55:39;-3.40;99.90
16102;DHT22;56411;52.964;10.540;2023-03-01T07:58:06;-3.20;99.90
16102;DHT22;56411;52.964;10.540;2023-03-01T08:00:33;-3.00;99.90
16102;DHT22;56411;52.964;10.540;2023-03-01T08:03:00;-2.70;99.90
16102;DHT22;56411;52.964;10.540;2023-03-01T08:05:28;-2.60;99.90
16102;DHT22;56411;52.964;10.540;2023-03-01T08:07:57;-2.40;99.90
16102;DHT22;56411;52.964;10.540;2023-03-01T08:10:24;-2.40;99.90
16102;DHT22;56411;52.964;10.540;2023-03-01T08:12:51;-2.40;99.90
16102;DHT22;56411;52.964;10.540;2023-03-01T08:15:19;-2.30;99.90
16102;DHT22;56411;52.964;10.540;2023-03-01T08:17:48;-2.30;99.90
16102;DHT22;56411;52.964;10.540;2023-03-01T08:20:16;-2.20;99.90
16102;DHT22;56411;52.964;10.540;2023-03-01T08:22:43;-2.10;99.90
16102;DHT22;56411;52.964;10.540;2023-03-01T08:25:11;-2.10;99.90
16102;DHT22;56411;52.964;10.540;2023-03-01T08:27:39;-2.00;99.90
16102;DHT22;56411;52.964;10.540;2023-03-01T08:30:07;-1.80;99.90
16102;DHT22;56411;52.964;10.540;2023-03-01T08:32:38;-1.70;99.90
16102;DHT22;56411;52.964;10.540;2023-03-01T08:35:06;-1.70;99.90
16102;DHT22;56411;52.964;10.540;2023-03-01T08:37:33;-1.60;99.90
16102;DHT22;56411;52.964;10.540;2023-03-01T08:40:00;-1.50;99.90
16102;DHT22;56411;52.964;10.540;2023-03-01T08:42:30;-1.30;99.90
16102;DHT22;56411;52.964;10.540;2023-03-01T08:44:59;-1.20;99.90
16102;DHT22;56411;52.964;10.540;2023-03-01T08:47:28;-1.10;99.90
16102;DHT22;56411;52.964;10.540;2023-03-01T08:49:55;-1.00;99.90
16102;DHT22;56411;52.964;10.540;2023-03-01T08:52:23;-0.90;99.90
16102;DHT22;56411;52.964;10.540;2023-03-01T08:54:50;-0.80;99.90
16102;DHT22;56411;52.964;10.540;2023-03-01T08:57:17;-0.60;99.90
16102;DHT22;56411;52.964;10.540;2023-03-01T08:59:46;-0.50;99.90
16102;DHT22;56411;52.964;10.540;2023-03-01T09:02:15;-0.40;99.90
16102;DHT22;56411;52.964;10.540;2023-03-01T09:04:43;-0.30;99.90
16102;DHT22;56411;52.964;10.540;2023-03-01T09:07:10;-0.20;99.90
16102;DHT22;56411;52.964;10.540;2023-03-01T09:09:37;0.00;99.90
16102;DHT22;56411;52.964;10.540;2023-03-01T09:12:05;0.20;99.90
16102;DHT22;56411;52.964;10.540;2023-03-01T09:14:32;0.30;99.90
16102;DHT22;56411;52.964;10.540;2023-03-01T09:17:01;0.40;99.90
16102;DHT22;56411;52.964;10.540;2023-03-01T09:19:28;0.50;99.90
16102;DHT22;56411;52.964;10.540;2023-03-01T09:21:55;0.60;99.90
16102;DHT22;56411;52.964;10.540;2023-03-01T09:24:24;0.70;99.90
16102;DHT22;56411;52.964;10.540;2023-03-01T09:26:53;0.80;99.90
16102;DHT22;56411;52.964;10.540;2023-03-01T09:29:21;0.90;99.90
16102;DHT22;56411;52.964;10.540;2023-03-01T09:31:48;1.20;99.90
16102;DHT22;56411;52.964;10.540;2023-03-01T09:34:16;1.40;99.90
16102;DHT22;56411;52.964;10.540;2023-03-01T09:36:49;1.50;99.90
16102;DHT22;56411;52.964;10.540;2023-03-01T09:39:16;1.60;99.90
16102;DHT22;56411;52.964;10.540;2023-03-01T09:41:50;1.70;99.90
16102;DHT22;56411;52.964;10.540;2023-03-01T09:44:36;1.90;99.90
16102;DHT22;56411;52.964;10.540;2023-03-01T09:47:05;2.00;99.90
16102;DHT22;56411;52.964;10.540;2023-03-01T09:49:39;2.20;99.90
16102;DHT22;56411;52.964;10.540;2023-03-01T09:52:28;2.40;99.90
16102;DHT22;56411;52.964;10.540;2023-03-01T09:54:56;2.80;99.90
16102;DHT22;56411;52.964;10.540;2023-03-01T09:57:30;3.10;99.90
16102;DHT22;56411;52.964;10.540;2023-03-01T10:00:16;3.40;99.90
16102;DHT22;56411;52.964;10.540;2023-03-01T10:02:50;3.70;99.90
16102;DHT22;56411;52.964;10.540;2023-03-01T10:05:31;3.70;99.90
16102;DHT22;56411;52.964;10.540;2023-03-01T10:10:47;3.90;99.90
16102;DHT22;56411;52.964;10.540;2023-03-01T10:13:19;3.90;99.90
16102;DHT22;56411;52.964;10.540;2023-03-01T10:15:50;4.00;99.90
16102;DHT22;56411;52.964;10.540;2023-03-01T10:18:22;4.40;99.90
16102;DHT22;56411;52.964;10.540;2023-03-01T10:20:54;4.70;99.90
16102;DHT22;56411;52.964;10.540;2023-03-01T10:23:23;4.80;99.90
16102;DHT22;56411;52.964;10.540;2023-03-01T10:26:09;4.90;99.90
16102;DHT22;56411;52.964;10.540;2023-03-01T10:28:45;5.00;99.90
16102;DHT22;56411;52.964;10.540;2023-03-01T10:31:14;4.90;99.90
16102;DHT22;56411;52.964;10.540;2023-03-01T10:33:44;5.10;99.90
16102;DHT22;56411;52.964;10.540;2023-03-01T10:36:15;5.50;99.90
16102;DHT22;56411;52.964;10.540;2023-03-01T10:38:49;6.10;99.90
16102;DHT22;56411;52.964;10.540;2023-03-01T10:41:20;6.40;99.90
16102;DHT22;56411;52.964;10.540;2023-03-01T10:43:50;6.40;99.90
16102;DHT22;56411;52.964;10.540;2023-03-01T10:46:24;6.30;99.90
16102;DHT22;56411;52.964;10.540;2023-03-01T10:49:14;6.90;99.90
16102;DHT22;56411;52.964;10.540;2023-03-01T10:51:45;7.10;99.90
16102;DHT22;56411;52.964;10.540;2023-03-01T10:54:19;7.10;99.90
16102;DHT22;56411;52.964;10.540;2023-03-01T10:56:48;7.60;99.90
16102;DHT22;56411;52.964;10.540;2023-03-01T10:59:24;7.70;99.90
16102;DHT22;56411;52.964;10.540;2023-03-01T11:02:12;8.00;99.90
16102;DHT22;56411;52.964;10.540;2023-03-01T11:04:56;8.60;99.90
16102;DHT22;56411;52.964;10.540;2023-03-01T11:07:25;9.50;99.90
16102;DHT22;56411;52.964;10.540;2023-03-01T11:09:53;9.90;99.90
16102;DHT22;56411;52.964;10.540;2023-03-01T11:12:21;10.20;99.90
16102;DHT22;56411;52.964;10.540;2023-03-01T11:14:49;10.20;99.90
16102;DHT22;56411;52.964;10.540;2023-03-01T11:17:21;10.40;99.90
16102;DHT22;56411;52.964;10.540;2023-03-01T11:20:00;10.00;99.90
16102;DHT22;56411;52.964;10.540;2023-03-01T11:22:31;9.50;99.90
16102;DHT22;56411;52.964;10.540;2023-03-01T11:25:01;9.70;99.90
16102;DHT22;56411;52.964;10.540;2023-03-01T11:27:32;10.10;99.90
16102;DHT22;56411;52.964;10.540;2023-03-01T11:30:02;10.70;99.90
16102;DHT22;56411;52.964;10.540;2023-03-01T11:32:35;10.10;99.90
16102;DHT22;56411;52.964;10.540;2023-03-01T11:35:10;9.80;99.90
16102;DHT22;56411;52.964;10.540;2023-03-01T11:37:50;9.90;99.90
16102;DHT22;56411;52.964;10.540;2023-03-01T11:40:23;10.60;99.90
16102;DHT22;56411;52.964;10.540;2023-03-01T11:43:00;11.60;99.90
16102;DHT22;56411;52.964;10.540;2023-03-01T11:45:34;11.80;99.90
16102;DHT22;56411;52.964;10.540;2023-03-01T11:48:22;11.90;99.90
16102;DHT22;56411;52.964;10.540;2023-03-01T11:50:51;11.30;99.90
16102;DHT22;56411;52.964;10.540;2023-03-01T11:53:56;11.60;99.90
16102;DHT22;56411;52.964;10.540;2023-03-01T11:56:30;12.20;99.90
16102;DHT22;56411;52.964;10.540;2023-03-01T11:59:11;12.30;99.90
16102;DHT22;56411;52.964;10.540;2023-03-01T12:01:53;11.10;99.90
16102;DHT22;56411;52.964;10.540;2023-03-01T12:04:44;10.80;99.90
16102;DHT22;56411;52.964;10.540;2023-03-01T12:07:19;12.20;99.90
16102;DHT22;56411;52.964;10.540;2023-03-01T12:10:08;13.20;99.90
16102;DHT22;56411;52.964;10.540;2023-03-01T12:12:58;14.10;99.90
16102;DHT22;56411;52.964;10.540;2023-03-01T12:15:39;14.70;99.90
16102;DHT22;56411;52.964;10.540;2023-03-01T12:18:34;15.00;99.90
16102;DHT22;56411;52.964;10.540;2023-03-01T12:21:14;15.30;99.90
16102;DHT22;56411;52.964;10.540;2023-03-01T12:24:01;15.60;99.90
16102;DHT22;56411;52.964;10.540;2023-03-01T12:26:34;15.60;99.90
16102;DHT22;56411;52.964;10.540;2023-03-01T12:29:24;15.40;99.60
16102;DHT22;56411;52.964;10.540;2023-03-01T12:32:19;15.30;99.90
16102;DHT22;56411;52.964;10.540;2023-03-01T12:35:00;15.60;99.90
16102;DHT22;56411;52.964;10.540;2023-03-01T12:37:38;16.00;99.80
16102;DHT22;56411;52.964;10.540;2023-03-01T12:40:27;16.00;99.60
16102;DHT22;56411;52.964;10.540;2023-03-01T12:43:10;16.60;99.80
16102;DHT22;56411;52.964;10.540;2023-03-01T12:45:51;17.30;98.00
16102;DHT22;56411;52.964;10.540;2023-03-01T12:48:38;17.20;96.40
16102;DHT22;56411;52.964;10.540;2023-03-01T12:51:08;16.80;97.20
16102;DHT22;56411;52.964;10.540;2023-03-01T12:53:39;17.00;98.10
16102;DHT22;56411;52.964;10.540;2023-03-01T12:56:09;17.20;96.10
16102;DHT22;56411;52.964;10.540;2023-03-01T12:58:41;16.90;96.60
16102;DHT22;56411;52.964;10.540;2023-03-01T13:01:17;16.80;96.60
16102;DHT22;56411;52.964;10.540;2023-03-01T13:04:03;16.60;95.90
16102;DHT22;56411;52.964;10.540;2023-03-01T13:06:35;16.00;97.20
16102;DHT22;56411;52.964;10.540;2023-03-01T13:09:12;15.50;97.70
16102;DHT22;56411;52.964;10.540;2023-03-01T13:11:42;15.40;98.40
16102;DHT22;56411;52.964;10.540;2023-03-01T13:14:36;15.90;97.80
16102;DHT22;56411;52.964;10.540;2023-03-01T13:17:04;16.30;96.70
16102;DHT22;56411;52.964;10.540;2023-03-01T13:19:31;16.00;97.20
16102;DHT22;56411;52.964;10.540;2023-03-01T13:22:25;15.40;97.80
16102;DHT22;56411;52.964;10.540;2023-03-01T13:25:01;15.50;97.40
16102;DHT22;56411;52.964;10.540;2023-03-01T13:27:28;15.00;98.60
16102;DHT22;56411;52.964;10.540;2023-03-01T13:29:57;15.40;98.00
16102;DHT22;56411;52.964;10.540;2023-03-01T13:32:29;15.70;98.80
16102;DHT22;56411;52.964;10.540;2023-03-01T13:34:59;15.80;98.40
16102;DHT22;56411;52.964;10.540;2023-03-01T13:37:31;15.90;98.70
16102;DHT22;56411;52.964;10.540;2023-03-01T13:40:05;16.50;97.60
16102;DHT22;56411;52.964;10.540;2023-03-01T13:42:52;16.60;97.90
16102;DHT22;56411;52.964;10.540;2023-03-01T13:45:22;16.70;98.20
16102;DHT22;56411;52.964;10.540;2023-03-01T13:47:56;16.70;98.60
16102;DHT22;56411;52.964;10.540;2023-03-01T13:50:27;16.90;98.20
16102;DHT22;56411;52.964;10.540;2023-03-01T13:52:57;16.40;98.70
16102;DHT22;56411;52.964;10.540;2023-03-01T13:55:36;16.40;98.90
16102;DHT22;56411;52.964;10.540;2023-03-01T13:58:14;16.40;99.90
16102;DHT22;56411;52.964;10.540;2023-03-01T14:00:42;16.70;99.00
16102;DHT22;56411;52.964;10.540;2023-03-01T14:03:11;16.50;99.00
16102;DHT22;56411;52.964;10.540;2023-03-01T14:05:40;16.80;98.80
16102;DHT22;56411;52.964;10.540;2023-03-01T14:08:29;17.00;98.70
16102;DHT22;56411;52.964;10.540;2023-03-01T14:11:20;17.10;99.90
16102;DHT22;56411;52.964;10.540;2023-03-01T14:16:52;17.10;99.50
16102;DHT22;56411;52.964;10.540;2023-03-01T14:19:23;17.40;99.40
16102;DHT22;56411;52.964;10.540;2023-03-01T14:22:00;17.60;98.70
16102;DHT22;56411;52.964;10.540;2023-03-01T14:24:30;17.20;98.00
16102;DHT22;56411;52.964;10.540;2023-03-01T14:27:02;16.30;99.50
16102;DHT22;56411;52.964;10.540;2023-03-01T14:29:34;15.60;99.90
16102;DHT22;56411;52.964;10.540;2023-03-01T14:32:09;16.10;99.90
16102;DHT22;56411;52.964;10.540;2023-03-01T14:34:43;16.20;99.90
16102;DHT22;56411;52.964;10.540;2023-03-01T14:37:17;16.40;99.90
16102;DHT22;56411;52.964;10.540;2023-03-01T14:39:45;16.70;99.90
16102;DHT22;56411;52.964;10.540;2023-03-01T14:42:14;17.10;99.90
16102;DHT22;56411;52.964;10.540;2023-03-01T14:44:43;17.50;99.60
16102;DHT22;56411;52.964;10.540;2023-03-01T14:47:14;17.20;99.60
16102;DHT22;56411;52.964;10.540;2023-03-01T14:49:42;16.60;99.90
16102;DHT22;56411;52.964;10.540;2023-03-01T14:52:18;16.40;99.90
16102;DHT22;56411;52.964;10.540;2023-03-01T14:54:48;16.10;99.90
16102;DHT22;56411;52.964;10.540;2023-03-01T14:57:20;15.60;99.90
16102;DHT22;56411;52.964;10.540;2023-03-01T14:59:48;15.30;99.90
16102;DHT22;56411;52.964;10.540;2023-03-01T15:02:20;15.20;99.90
16102;DHT22;56411;52.964;10.540;2023-03-01T15:04:51;15.10;99.90
16102;DHT22;56411;52.964;10.540;2023-03-01T15:07:19;15.30;99.90
16102;DHT22;56411;52.964;10.540;2023-03-01T15:09:47;15.50;99.90
16102;DHT22;56411;52.964;10.540;2023-03-01T15:12:38;15.10;99.90
16102;DHT22;56411;52.964;10.540;2023-03-01T15:15:30;15.20;99.90
16102;DHT22;56411;52.964;10.540;2023-03-01T15:17:59;15.80;99.90
16102;DHT22;56411;52.964;10.540;2023-03-01T15:20:28;15.90;99.90
16102;DHT22;56411;52.964;10.540;2023-03-01T15:23:01;15.90;99.90
16102;DHT22;56411;52.964;10.540;2023-03-01T15:25:30;15.90;99.90
16102;DHT22;56411;52.964;10.540;2023-03-01T15:28:01;15.90;99.90
16102;DHT22;56411;52.964;10.540;2023-03-01T15:30:31;16.40;99.90
16102;DHT22;56411;52.964;10.540;2023-03-01T15:33:29;16.00;99.90
16102;DHT22;56411;52.964;10.540;2023-03-01T15:35:57;16.20;99.90
16102;DHT22;56411;52.964;10.540;2023-03-01T15:38:33;16.50;99.90
16102;DHT22;56411;52.964;10.540;2023-03-01T15:41:04;16.70;99.90
16102;DHT22;56411;52.964;10.540;2023-03-01T15:43:48;16.40;99.90
16102;DHT22;56411;52.964;10.540;2023-03-01T15:46:22;16.20;99.90
16102;DHT22;56411;52.964;10.540;2023-03-01T15:48:52;15.80;99.90
16102;DHT22;56411;52.964;10.540;2023-03-01T15:51:26;15.40;99.90